KGGG/GGG METAR and TAF weather

Enter ICAO airport designator
Station Type Date Time Source
KGGG METAR 2020/01/18 23:53 UTC NOAA

KGGG 182353Z 36010G19KT 10SM CLR 13/ A3025 RMK AO2 SLP242 T0133 10183 20133 53026 $


Station Type Date Time Source
KGGG Decoded METAR 2020/01/18 23:53 UTC NOAA

LONGVIEW GREGG COUNTY AIRPORT , TX, United States (KGGG) 32-23N 094-43W 107M
Jan 18, 2020 - 06:53 PM EST / 2020.01.18 2353 UTC
Wind: from the N (360 degrees) at 12 MPH (10 KT) gusting to 22 MPH (19 KT):0
Visibility: 10 mile(s):0
Sky conditions: clear
Temperature: 55 F (13 C)
Pressure (altimeter): 30.25 in. Hg (1024 hPa)
Pressure tendency: 0.08 inches (2.6 hPa) higher than three hours ago
ob: KGGG 182353Z 36010G19KT 10SM CLR 13/ A3025 RMK AO2 SLP242 T0133 10183 20133 53026
cycle: 0

Station Type Date Time Source
KGGG TAF 2020/01/18 18:30 UTC NOAA

TAF KGGG 181728Z 1818/1918 34015G20KT P6SM SCT018 BKN070
FM181900 34015G20KT P6SM SKC
FM190000 34012KT P6SM SKC
FM191000 01006KT P6SM SKC
FM191500 04009KT P6SM SKC

Example: see airport list